sensor_id;sensor_type;location;lat;lon;timestamp;P1;durP1;ratioP1;P2;durP2;ratioP2
66179;SDS011;52986;44.028;20.466;2023-02-28T00:02:15;36.33;;;15.13;;
66179;SDS011;52986;44.028;20.466;2023-02-28T00:04:42;36.95;;;14.57;;
66179;SDS011;52986;44.028;20.466;2023-02-28T00:07:08;34.75;;;14.30;;
66179;SDS011;52986;44.028;20.466;2023-02-28T00:09:34;33.55;;;13.18;;
66179;SDS011;52986;44.028;20.466;2023-02-28T00:11:59;31.97;;;13.47;;
66179;SDS011;52986;44.028;20.466;2023-02-28T00:14:25;32.95;;;13.68;;
66179;SDS011;52986;44.028;20.466;2023-02-28T00:16:50;34.90;;;14.50;;
66179;SDS011;52986;44.028;20.466;2023-02-28T00:19:17;34.40;;;13.50;;
66179;SDS011;52986;44.028;20.466;2023-02-28T00:21:42;35.53;;;14.13;;
66179;SDS011;52986;44.028;20.466;2023-02-28T00:24:07;32.35;;;13.48;;
66179;SDS011;52986;44.028;20.466;2023-02-28T00:26:33;35.92;;;13.05;;
66179;SDS011;52986;44.028;20.466;2023-02-28T00:28:58;35.70;;;14.45;;
66179;SDS011;52986;44.028;20.466;2023-02-28T00:31:23;36.30;;;14.30;;
66179;SDS011;52986;44.028;20.466;2023-02-28T00:33:49;38.92;;;14.30;;
66179;SDS011;52986;44.028;20.466;2023-02-28T00:36:16;36.53;;;15.13;;
66179;SDS011;52986;44.028;20.466;2023-02-28T00:38:42;36.13;;;14.40;;
66179;SDS011;52986;44.028;20.466;2023-02-28T00:41:07;36.63;;;13.52;;
66179;SDS011;52986;44.028;20.466;2023-02-28T00:43:33;35.95;;;14.07;;
66179;SDS011;52986;44.028;20.466;2023-02-28T00:46:01;34.75;;;13.55;;
66179;SDS011;52986;44.028;20.466;2023-02-28T00:48:27;34.67;;;13.88;;
66179;SDS011;52986;44.028;20.466;2023-02-28T00:50:53;36.55;;;14.70;;
66179;SDS011;52986;44.028;20.466;2023-02-28T00:53:18;37.42;;;14.93;;
66179;SDS011;52986;44.028;20.466;2023-02-28T00:55:43;35.53;;;14.60;;
66179;SDS011;52986;44.028;20.466;2023-02-28T00:58:09;40.72;;;16.10;;
66179;SDS011;52986;44.028;20.466;2023-02-28T01:00:34;40.67;;;15.57;;
66179;SDS011;52986;44.028;20.466;2023-02-28T01:03:00;36.60;;;14.93;;
66179;SDS011;52986;44.028;20.466;2023-02-28T01:05:25;39.92;;;15.02;;
66179;SDS011;52986;44.028;20.466;2023-02-28T01:07:50;34.65;;;13.35;;
66179;SDS011;52986;44.028;20.466;2023-02-28T01:10:16;37.35;;;14.85;;
66179;SDS011;52986;44.028;20.466;2023-02-28T01:12:41;36.15;;;14.35;;
66179;SDS011;52986;44.028;20.466;2023-02-28T01:15:09;36.15;;;14.45;;
66179;SDS011;52986;44.028;20.466;2023-02-28T01:17:36;34.67;;;14.25;;
66179;SDS011;52986;44.028;20.466;2023-02-28T01:20:01;38.45;;;14.80;;
66179;SDS011;52986;44.028;20.466;2023-02-28T01:22:27;38.97;;;14.55;;
66179;SDS011;52986;44.028;20.466;2023-02-28T01:24:53;36.00;;;13.77;;
66179;SDS011;52986;44.028;20.466;2023-02-28T01:27:19;36.50;;;13.43;;
66179;SDS011;52986;44.028;20.466;2023-02-28T01:29:44;37.63;;;13.75;;
66179;SDS011;52986;44.028;20.466;2023-02-28T01:32:10;34.15;;;13.35;;
66179;SDS011;52986;44.028;20.466;2023-02-28T01:34:35;36.13;;;14.20;;
66179;SDS011;52986;44.028;20.466;2023-02-28T01:37:01;34.92;;;13.88;;
66179;SDS011;52986;44.028;20.466;2023-02-28T01:39:26;37.15;;;14.50;;
66179;SDS011;52986;44.028;20.466;2023-02-28T01:41:52;34.88;;;13.27;;
66179;SDS011;52986;44.028;20.466;2023-02-28T01:47:20;40.78;;;15.50;;
66179;SDS011;52986;44.028;20.466;2023-02-28T01:49:48;36.05;;;14.20;;
66179;SDS011;52986;44.028;20.466;2023-02-28T01:52:16;37.15;;;14.55;;
66179;SDS011;52986;44.028;20.466;2023-02-28T01:54:43;38.75;;;15.60;;
66179;SDS011;52986;44.028;20.466;2023-02-28T01:57:16;39.90;;;15.80;;
66179;SDS011;52986;44.028;20.466;2023-02-28T02:02:29;37.17;;;14.45;;
66179;SDS011;52986;44.028;20.466;2023-02-28T02:05:00;39.40;;;14.95;;
66179;SDS011;52986;44.028;20.466;2023-02-28T02:07:32;35.60;;;13.93;;
66179;SDS011;52986;44.028;20.466;2023-02-28T02:10:02;40.20;;;15.23;;
66179;SDS011;52986;44.028;20.466;2023-02-28T02:15:30;36.30;;;14.82;;
66179;SDS011;52986;44.028;20.466;2023-02-28T02:18:16;38.88;;;15.02;;
66179;SDS011;52986;44.028;20.466;2023-02-28T02:40:26;46.58;;;17.08;;
66179;SDS011;52986;44.028;20.466;2023-02-28T02:45:43;46.72;;;17.25;;
66179;SDS011;52986;44.028;20.466;2023-02-28T02:48:16;48.25;;;17.30;;
66179;SDS011;52986;44.028;20.466;2023-02-28T02:50:55;48.30;;;17.73;;
66179;SDS011;52986;44.028;20.466;2023-02-28T02:53:25;41.35;;;16.38;;
66179;SDS011;52986;44.028;20.466;2023-02-28T02:56:00;47.30;;;17.05;;
66179;SDS011;52986;44.028;20.466;2023-02-28T02:58:29;44.75;;;16.38;;
66179;SDS011;52986;44.028;20.466;2023-02-28T03:01:00;48.25;;;18.05;;
66179;SDS011;52986;44.028;20.466;2023-02-28T03:03:29;47.53;;;18.65;;
66179;SDS011;52986;44.028;20.466;2023-02-28T03:05:57;46.05;;;18.10;;
66179;SDS011;52986;44.028;20.466;2023-02-28T03:08:25;48.28;;;17.50;;
66179;SDS011;52986;44.028;20.466;2023-02-28T03:10:52;51.30;;;17.95;;
66179;SDS011;52986;44.028;20.466;2023-02-28T03:19:25;48.42;;;18.77;;
66179;SDS011;52986;44.028;20.466;2023-02-28T03:22:22;50.40;;;16.75;;
66179;SDS011;52986;44.028;20.466;2023-02-28T03:25:13;45.75;;;17.90;;
66179;SDS011;52986;44.028;20.466;2023-02-28T03:30:38;42.92;;;16.20;;
66179;SDS011;52986;44.028;20.466;2023-02-28T03:36:10;45.42;;;16.88;;
66179;SDS011;52986;44.028;20.466;2023-02-28T03:38:41;47.13;;;18.10;;
66179;SDS011;52986;44.028;20.466;2023-02-28T03:41:20;50.58;;;17.50;;
66179;SDS011;52986;44.028;20.466;2023-02-28T03:43:57;51.75;;;18.95;;
66179;SDS011;52986;44.028;20.466;2023-02-28T03:46:28;46.78;;;16.73;;
66179;SDS011;52986;44.028;20.466;2023-02-28T03:49:05;47.40;;;16.52;;
66179;SDS011;52986;44.028;20.466;2023-02-28T03:51:36;46.78;;;17.13;;
66179;SDS011;52986;44.028;20.466;2023-02-28T03:54:08;45.28;;;15.57;;
66179;SDS011;52986;44.028;20.466;2023-02-28T03:56:38;45.78;;;15.88;;
66179;SDS011;52986;44.028;20.466;2023-02-28T04:01:45;43.92;;;15.55;;
66179;SDS011;52986;44.028;20.466;2023-02-28T04:04:13;43.22;;;15.60;;
66179;SDS011;52986;44.028;20.466;2023-02-28T04:06:39;37.10;;;13.63;;
66179;SDS011;52986;44.028;20.466;2023-02-28T04:09:06;39.33;;;14.00;;
66179;SDS011;52986;44.028;20.466;2023-02-28T04:11:37;40.35;;;14.65;;
66179;SDS011;52986;44.028;20.466;2023-02-28T04:14:04;45.10;;;14.48;;
66179;SDS011;52986;44.028;20.466;2023-02-28T04:16:31;42.67;;;15.23;;
66179;SDS011;52986;44.028;20.466;2023-02-28T04:18:58;43.53;;;15.90;;
66179;SDS011;52986;44.028;20.466;2023-02-28T04:21:28;47.13;;;17.05;;
66179;SDS011;52986;44.028;20.466;2023-02-28T04:23:54;42.00;;;15.00;;
66179;SDS011;52986;44.028;20.466;2023-02-28T04:26:20;39.60;;;14.73;;
66179;SDS011;52986;44.028;20.466;2023-02-28T04:28:45;41.38;;;15.93;;
66179;SDS011;52986;44.028;20.466;2023-02-28T04:31:11;43.97;;;16.27;;
66179;SDS011;52986;44.028;20.466;2023-02-28T04:33:36;44.47;;;16.13;;
66179;SDS011;52986;44.028;20.466;2023-02-28T04:36:03;41.05;;;15.73;;
66179;SDS011;52986;44.028;20.466;2023-02-28T04:38:32;44.53;;;15.45;;
66179;SDS011;52986;44.028;20.466;2023-02-28T04:40:58;43.47;;;15.43;;
66179;SDS011;52986;44.028;20.466;2023-02-28T04:43:27;46.78;;;16.67;;
66179;SDS011;52986;44.028;20.466;2023-02-28T04:45:54;48.65;;;16.45;;
66179;SDS011;52986;44.028;20.466;2023-02-28T04:48:27;48.38;;;17.45;;
66179;SDS011;52986;44.028;20.466;2023-02-28T04:50:53;44.88;;;16.80;;
66179;SDS011;52986;44.028;20.466;2023-02-28T04:53:19;45.95;;;16.80;;
66179;SDS011;52986;44.028;20.466;2023-02-28T04:55:45;52.10;;;18.58;;
66179;SDS011;52986;44.028;20.466;2023-02-28T04:58:11;45.97;;;17.10;;
66179;SDS011;52986;44.028;20.466;2023-02-28T05:00:37;46.17;;;16.15;;
66179;SDS011;52986;44.028;20.466;2023-02-28T05:03:03;49.65;;;18.27;;
66179;SDS011;52986;44.028;20.466;2023-02-28T05:05:28;48.85;;;17.90;;
66179;SDS011;52986;44.028;20.466;2023-02-28T05:07:53;51.88;;;16.95;;
66179;SDS011;52986;44.028;20.466;2023-02-28T05:10:20;45.40;;;15.57;;
66179;SDS011;52986;44.028;20.466;2023-02-28T05:12:46;44.83;;;16.40;;
66179;SDS011;52986;44.028;20.466;2023-02-28T05:15:13;42.65;;;15.23;;
66179;SDS011;52986;44.028;20.466;2023-02-28T05:17:39;39.88;;;14.50;;
66179;SDS011;52986;44.028;20.466;2023-02-28T05:20:05;42.08;;;15.02;;
66179;SDS011;52986;44.028;20.466;2023-02-28T05:22:31;42.50;;;15.13;;
66179;SDS011;52986;44.028;20.466;2023-02-28T05:24:56;43.85;;;15.00;;
66179;SDS011;52986;44.028;20.466;2023-02-28T05:27:22;54.40;;;18.63;;
66179;SDS011;52986;44.028;20.466;2023-02-28T05:29:47;46.47;;;17.58;;
66179;SDS011;52986;44.028;20.466;2023-02-28T05:32:13;49.58;;;18.85;;
66179;SDS011;52986;44.028;20.466;2023-02-28T05:34:39;65.55;;;23.38;;
66179;SDS011;52986;44.028;20.466;2023-02-28T05:37:05;52.22;;;19.52;;
66179;SDS011;52986;44.028;20.466;2023-02-28T05:39:34;60.05;;;22.38;;
66179;SDS011;52986;44.028;20.466;2023-02-28T05:42:00;62.83;;;23.73;;
66179;SDS011;52986;44.028;20.466;2023-02-28T05:44:25;75.68;;;28.08;;
66179;SDS011;52986;44.028;20.466;2023-02-28T05:46:51;60.78;;;23.08;;
66179;SDS011;52986;44.028;20.466;2023-02-28T05:49:16;63.13;;;22.77;;
66179;SDS011;52986;44.028;20.466;2023-02-28T05:51:41;57.10;;;21.63;;
66179;SDS011;52986;44.028;20.466;2023-02-28T05:54:07;68.50;;;26.15;;
66179;SDS011;52986;44.028;20.466;2023-02-28T05:56:33;60.72;;;22.73;;
66179;SDS011;52986;44.028;20.466;2023-02-28T05:59:00;57.15;;;21.30;;
66179;SDS011;52986;44.028;20.466;2023-02-28T06:01:36;53.75;;;20.40;;
66179;SDS011;52986;44.028;20.466;2023-02-28T06:04:04;51.55;;;19.17;;
66179;SDS011;52986;44.028;20.466;2023-02-28T06:06:32;50.55;;;18.88;;
66179;SDS011;52986;44.028;20.466;2023-02-28T06:08:59;59.95;;;21.20;;
66179;SDS011;52986;44.028;20.466;2023-02-28T06:11:25;46.33;;;16.48;;
66179;SDS011;52986;44.028;20.466;2023-02-28T06:13:55;46.85;;;18.05;;
66179;SDS011;52986;44.028;20.466;2023-02-28T06:16:22;50.45;;;18.35;;
66179;SDS011;52986;44.028;20.466;2023-02-28T06:18:48;52.72;;;20.35;;
66179;SDS011;52986;44.028;20.466;2023-02-28T06:21:14;57.10;;;21.55;;
66179;SDS011;52986;44.028;20.466;2023-02-28T06:23:39;49.90;;;19.70;;
66179;SDS011;52986;44.028;20.466;2023-02-28T06:26:04;55.15;;;21.73;;
66179;SDS011;52986;44.028;20.466;2023-02-28T06:28:30;55.72;;;21.65;;
66179;SDS011;52986;44.028;20.466;2023-02-28T06:30:56;56.83;;;22.23;;
66179;SDS011;52986;44.028;20.466;2023-02-28T06:33:21;51.72;;;20.90;;
66179;SDS011;52986;44.028;20.466;2023-02-28T06:35:47;55.15;;;22.35;;
66179;SDS011;52986;44.028;20.466;2023-02-28T06:38:15;48.17;;;19.35;;
66179;SDS011;52986;44.028;20.466;2023-02-28T06:40:41;54.83;;;22.30;;
66179;SDS011;52986;44.028;20.466;2023-02-28T06:43:06;57.78;;;24.05;;
66179;SDS011;52986;44.028;20.466;2023-02-28T06:45:32;57.78;;;23.17;;
66179;SDS011;52986;44.028;20.466;2023-02-28T06:47:58;57.67;;;22.88;;
66179;SDS011;52986;44.028;20.466;2023-02-28T06:50:25;55.60;;;22.50;;
66179;SDS011;52986;44.028;20.466;2023-02-28T06:52:52;56.63;;;22.67;;
66179;SDS011;52986;44.028;20.466;2023-02-28T06:55:19;52.63;;;20.75;;
66179;SDS011;52986;44.028;20.466;2023-02-28T06:57:44;48.38;;;19.58;;
66179;SDS011;52986;44.028;20.466;2023-02-28T07:00:10;58.72;;;24.13;;
66179;SDS011;52986;44.028;20.466;2023-02-28T07:02:37;51.17;;;19.48;;
66179;SDS011;52986;44.028;20.466;2023-02-28T07:05:03;53.45;;;22.02;;
66179;SDS011;52986;44.028;20.466;2023-02-28T07:07:31;56.08;;;22.85;;
66179;SDS011;52986;44.028;20.466;2023-02-28T07:09:57;59.67;;;22.83;;
66179;SDS011;52986;44.028;20.466;2023-02-28T07:12:22;46.55;;;18.70;;
66179;SDS011;52986;44.028;20.466;2023-02-28T07:14:51;43.45;;;17.45;;
66179;SDS011;52986;44.028;20.466;2023-02-28T07:17:16;42.15;;;15.75;;
66179;SDS011;52986;44.028;20.466;2023-02-28T07:19:41;48.10;;;19.13;;
66179;SDS011;52986;44.028;20.466;2023-02-28T07:22:07;43.72;;;17.95;;
66179;SDS011;52986;44.028;20.466;2023-02-28T07:24:33;46.58;;;19.15;;
66179;SDS011;52986;44.028;20.466;2023-02-28T07:26:58;51.00;;;20.33;;
66179;SDS011;52986;44.028;20.466;2023-02-28T07:29:24;52.92;;;20.23;;
66179;SDS011;52986;44.028;20.466;2023-02-28T07:31:49;45.83;;;17.27;;
66179;SDS011;52986;44.028;20.466;2023-02-28T07:34:17;51.58;;;20.58;;
66179;SDS011;52986;44.028;20.466;2023-02-28T07:36:43;52.42;;;20.77;;
66179;SDS011;52986;44.028;20.466;2023-02-28T07:39:09;46.75;;;18.05;;
66179;SDS011;52986;44.028;20.466;2023-02-28T07:41:35;48.13;;;18.63;;
66179;SDS011;52986;44.028;20.466;2023-02-28T07:44:04;49.10;;;20.65;;
66179;SDS011;52986;44.028;20.466;2023-02-28T07:46:29;48.35;;;19.98;;
66179;SDS011;52986;44.028;20.466;2023-02-28T07:49:00;43.75;;;17.50;;
66179;SDS011;52986;44.028;20.466;2023-02-28T07:51:27;45.35;;;18.85;;
66179;SDS011;52986;44.028;20.466;2023-02-28T07:53:53;43.47;;;16.65;;
66179;SDS011;52986;44.028;20.466;2023-02-28T07:56:19;40.90;;;15.77;;
66179;SDS011;52986;44.028;20.466;2023-02-28T07:58:44;38.33;;;14.20;;
66179;SDS011;52986;44.028;20.466;2023-02-28T08:01:10;42.83;;;16.42;;
66179;SDS011;52986;44.028;20.466;2023-02-28T08:03:36;39.83;;;15.63;;
66179;SDS011;52986;44.028;20.466;2023-02-28T08:06:03;35.42;;;13.98;;
66179;SDS011;52986;44.028;20.466;2023-02-28T08:08:29;35.40;;;13.63;;
66179;SDS011;52986;44.028;20.466;2023-02-28T08:11:00;37.65;;;14.98;;
66179;SDS011;52986;44.028;20.466;2023-02-28T08:13:27;39.20;;;15.63;;
66179;SDS011;52986;44.028;20.466;2023-02-28T08:15:54;43.83;;;16.60;;
66179;SDS011;52986;44.028;20.466;2023-02-28T08:18:20;48.05;;;17.63;;
66179;SDS011;52986;44.028;20.466;2023-02-28T08:20:47;49.65;;;19.60;;
66179;SDS011;52986;44.028;20.466;2023-02-28T08:23:12;48.55;;;19.88;;
66179;SDS011;52986;44.028;20.466;2023-02-28T08:25:38;44.70;;;17.77;;
66179;SDS011;52986;44.028;20.466;2023-02-28T08:28:04;48.35;;;18.88;;
66179;SDS011;52986;44.028;20.466;2023-02-28T08:30:29;70.38;;;42.25;;
66179;SDS011;52986;44.028;20.466;2023-02-28T08:32:54;39.85;;;16.13;;
66179;SDS011;52986;44.028;20.466;2023-02-28T08:35:20;45.53;;;16.30;;
66179;SDS011;52986;44.028;20.466;2023-02-28T08:37:47;42.55;;;15.95;;
66179;SDS011;52986;44.028;20.466;2023-02-28T08:40:13;38.53;;;15.25;;
66179;SDS011;52986;44.028;20.466;2023-02-28T08:42:43;44.42;;;18.35;;
66179;SDS011;52986;44.028;20.466;2023-02-28T08:45:12;48.13;;;20.70;;
66179;SDS011;52986;44.028;20.466;2023-02-28T08:47:38;47.40;;;17.33;;
66179;SDS011;52986;44.028;20.466;2023-02-28T08:50:04;43.28;;;16.48;;
66179;SDS011;52986;44.028;20.466;2023-02-28T08:52:30;36.53;;;14.25;;
66179;SDS011;52986;44.028;20.466;2023-02-28T08:54:55;38.03;;;14.57;;
66179;SDS011;52986;44.028;20.466;2023-02-28T08:57:21;34.30;;;13.80;;
66179;SDS011;52986;44.028;20.466;2023-02-28T08:59:46;35.97;;;13.40;;
66179;SDS011;52986;44.028;20.466;2023-02-28T09:02:14;31.98;;;12.93;;
66179;SDS011;52986;44.028;20.466;2023-02-28T09:04:40;32.25;;;12.95;;
66179;SDS011;52986;44.028;20.466;2023-02-28T09:07:06;32.63;;;12.55;;
66179;SDS011;52986;44.028;20.466;2023-02-28T09:09:32;36.20;;;13.95;;
66179;SDS011;52986;44.028;20.466;2023-02-28T09:11:57;41.80;;;16.70;;
66179;SDS011;52986;44.028;20.466;2023-02-28T09:14:23;41.30;;;16.52;;
66179;SDS011;52986;44.028;20.466;2023-02-28T09:16:48;34.95;;;14.00;;
66179;SDS011;52986;44.028;20.466;2023-02-28T09:19:14;35.28;;;12.95;;
66179;SDS011;52986;44.028;20.466;2023-02-28T09:21:39;31.42;;;12.65;;
66179;SDS011;52986;44.028;20.466;2023-02-28T09:24:05;39.35;;;14.98;;
66179;SDS011;52986;44.028;20.466;2023-02-28T09:26:31;37.85;;;14.65;;
66179;SDS011;52986;44.028;20.466;2023-02-28T09:28:56;33.78;;;13.70;;
66179;SDS011;52986;44.028;20.466;2023-02-28T09:31:24;34.70;;;14.50;;
66179;SDS011;52986;44.028;20.466;2023-02-28T09:33:53;35.22;;;15.10;;
66179;SDS011;52986;44.028;20.466;2023-02-28T09:36:20;40.92;;;17.33;;
66179;SDS011;52986;44.028;20.466;2023-02-28T09:38:46;37.08;;;14.57;;
66179;SDS011;52986;44.028;20.466;2023-02-28T09:44:12;38.35;;;13.80;;
66179;SDS011;52986;44.028;20.466;2023-02-28T09:46:47;41.03;;;15.88;;
66179;SDS011;52986;44.028;20.466;2023-02-28T09:49:18;36.95;;;13.57;;
66179;SDS011;52986;44.028;20.466;2023-02-28T09:52:03;32.85;;;13.00;;
66179;SDS011;52986;44.028;20.466;2023-02-28T09:54:34;34.03;;;11.93;;
66179;SDS011;52986;44.028;20.466;2023-02-28T09:57:01;33.67;;;12.90;;
66179;SDS011;52986;44.028;20.466;2023-02-28T10:12:58;53.97;;;22.85;;
66179;SDS011;52986;44.028;20.466;2023-02-28T10:15:28;51.95;;;22.38;;
66179;SDS011;52986;44.028;20.466;2023-02-28T10:17:58;54.75;;;22.80;;
66179;SDS011;52986;44.028;20.466;2023-02-28T10:20:26;47.38;;;20.02;;
66179;SDS011;52986;44.028;20.466;2023-02-28T10:25:45;40.80;;;17.05;;
66179;SDS011;52986;44.028;20.466;2023-02-28T10:28:17;38.92;;;15.90;;
66179;SDS011;52986;44.028;20.466;2023-02-28T10:30:47;39.53;;;15.57;;
66179;SDS011;52986;44.028;20.466;2023-02-28T10:33:19;32.03;;;13.40;;
66179;SDS011;52986;44.028;20.466;2023-02-28T10:35:48;37.17;;;15.68;;
66179;SDS011;52986;44.028;20.466;2023-02-28T10:38:16;44.33;;;16.98;;
66179;SDS011;52986;44.028;20.466;2023-02-28T10:43:34;40.65;;;17.58;;
66179;SDS011;52986;44.028;20.466;2023-02-28T10:46:02;40.22;;;15.95;;
66179;SDS011;52986;44.028;20.466;2023-02-28T10:48:37;39.00;;;17.25;;
66179;SDS011;52986;44.028;20.466;2023-02-28T10:51:09;37.97;;;15.68;;
66179;SDS011;52986;44.028;20.466;2023-02-28T10:53:45;41.25;;;14.27;;
66179;SDS011;52986;44.028;20.466;2023-02-28T10:56:17;35.60;;;13.60;;
66179;SDS011;52986;44.028;20.466;2023-02-28T10:58:56;35.22;;;14.48;;
66179;SDS011;52986;44.028;20.466;2023-02-28T11:01:41;42.58;;;17.40;;
66179;SDS011;52986;44.028;20.466;2023-02-28T11:06:48;43.88;;;18.23;;
66179;SDS011;52986;44.028;20.466;2023-02-28T11:09:26;47.38;;;18.73;;
66179;SDS011;52986;44.028;20.466;2023-02-28T11:11:55;40.42;;;15.82;;
66179;SDS011;52986;44.028;20.466;2023-02-28T11:16:50;37.30;;;15.30;;
66179;SDS011;52986;44.028;20.466;2023-02-28T11:19:20;37.55;;;13.93;;
66179;SDS011;52986;44.028;20.466;2023-02-28T11:21:55;45.67;;;18.98;;
66179;SDS011;52986;44.028;20.466;2023-02-28T11:26:52;42.58;;;17.15;;
66179;SDS011;52986;44.028;20.466;2023-02-28T11:29:20;42.75;;;18.73;;
66179;SDS011;52986;44.028;20.466;2023-02-28T11:37:34;43.78;;;18.63;;
66179;SDS011;52986;44.028;20.466;2023-02-28T11:40:00;45.80;;;18.90;;
66179;SDS011;52986;44.028;20.466;2023-02-28T11:48:02;45.17;;;16.85;;
66179;SDS011;52986;44.028;20.466;2023-02-28T11:50:42;45.13;;;17.92;;
66179;SDS011;52986;44.028;20.466;2023-02-28T11:56:10;44.65;;;17.80;;
66179;SDS011;52986;44.028;20.466;2023-02-28T11:58:49;42.63;;;17.30;;
66179;SDS011;52986;44.028;20.466;2023-02-28T12:06:57;35.65;;;15.15;;
66179;SDS011;52986;44.028;20.466;2023-02-28T12:24:06;42.45;;;16.63;;
66179;SDS011;52986;44.028;20.466;2023-02-28T12:26:41;40.42;;;16.23;;
66179;SDS011;52986;44.028;20.466;2023-02-28T12:29:19;44.17;;;17.65;;
66179;SDS011;52986;44.028;20.466;2023-02-28T12:31:51;38.97;;;16.60;;
66179;SDS011;52986;44.028;20.466;2023-02-28T12:34:22;39.28;;;15.68;;
66179;SDS011;52986;44.028;20.466;2023-02-28T12:36:53;38.80;;;15.32;;
66179;SDS011;52986;44.028;20.466;2023-02-28T12:39:25;39.83;;;16.05;;
66179;SDS011;52986;44.028;20.466;2023-02-28T12:42:00;40.72;;;18.02;;
66179;SDS011;52986;44.028;20.466;2023-02-28T12:44:43;42.75;;;17.17;;
66179;SDS011;52986;44.028;20.466;2023-02-28T12:47:15;42.90;;;18.83;;
66179;SDS011;52986;44.028;20.466;2023-02-28T12:49:52;40.95;;;17.65;;
66179;SDS011;52986;44.028;20.466;2023-02-28T12:52:25;39.58;;;16.40;;
66179;SDS011;52986;44.028;20.466;2023-02-28T12:55:03;38.53;;;16.77;;
66179;SDS011;52986;44.028;20.466;2023-02-28T12:57:40;38.05;;;16.50;;
66179;SDS011;52986;44.028;20.466;2023-02-28T13:00:15;36.05;;;14.38;;
66179;SDS011;52986;44.028;20.466;2023-02-28T13:03:04;37.50;;;16.05;;
66179;SDS011;52986;44.028;20.466;2023-02-28T13:11:28;37.05;;;15.00;;
66179;SDS011;52986;44.028;20.466;2023-02-28T13:13:59;37.78;;;15.18;;
66179;SDS011;52986;44.028;20.466;2023-02-28T13:19:22;39.67;;;15.48;;
66179;SDS011;52986;44.028;20.466;2023-02-28T13:21:50;38.13;;;15.57;;
66179;SDS011;52986;44.028;20.466;2023-02-28T13:29:37;31.23;;;12.83;;
66179;SDS011;52986;44.028;20.466;2023-02-28T13:34:34;39.15;;;16.55;;
66179;SDS011;52986;44.028;20.466;2023-02-28T13:39:54;37.78;;;15.85;;
66179;SDS011;52986;44.028;20.466;2023-02-28T13:47:52;40.80;;;18.20;;
66179;SDS011;52986;44.028;20.466;2023-02-28T13:50:36;40.83;;;16.83;;
66179;SDS011;52986;44.028;20.466;2023-02-28T14:01:02;36.00;;;15.00;;
66179;SDS011;52986;44.028;20.466;2023-02-28T14:06:46;38.83;;;16.65;;
66179;SDS011;52986;44.028;20.466;2023-02-28T14:09:17;40.85;;;17.75;;
66179;SDS011;52986;44.028;20.466;2023-02-28T14:11:44;41.13;;;18.15;;
66179;SDS011;52986;44.028;20.466;2023-02-28T14:14:56;41.17;;;16.27;;
66179;SDS011;52986;44.028;20.466;2023-02-28T14:16:59;37.03;;;15.15;;
66179;SDS011;52986;44.028;20.466;2023-02-28T14:19:27;36.53;;;16.15;;
66179;SDS011;52986;44.028;20.466;2023-02-28T14:32:06;37.15;;;14.23;;
66179;SDS011;52986;44.028;20.466;2023-02-28T14:37:09;41.20;;;14.48;;
66179;SDS011;52986;44.028;20.466;2023-02-28T14:39:41;35.92;;;14.60;;
66179;SDS011;52986;44.028;20.466;2023-02-28T14:44:57;33.40;;;14.77;;
66179;SDS011;52986;44.028;20.466;2023-02-28T14:47:25;36.20;;;14.95;;
66179;SDS011;52986;44.028;20.466;2023-02-28T14:49:55;30.88;;;13.65;;
66179;SDS011;52986;44.028;20.466;2023-02-28T14:52:29;32.20;;;15.18;;
66179;SDS011;52986;44.028;20.466;2023-02-28T14:57:32;36.47;;;15.60;;
66179;SDS011;52986;44.028;20.466;2023-02-28T15:02:35;33.78;;;14.65;;
66179;SDS011;52986;44.028;20.466;2023-02-28T15:05:22;34.38;;;14.40;;
66179;SDS011;52986;44.028;20.466;2023-02-28T15:10:36;35.10;;;15.30;;
66179;SDS011;52986;44.028;20.466;2023-02-28T15:13:07;32.25;;;14.18;;
66179;SDS011;52986;44.028;20.466;2023-02-28T15:21:03;33.60;;;15.30;;
66179;SDS011;52986;44.028;20.466;2023-02-28T15:23:32;37.35;;;15.93;;
66179;SDS011;52986;44.028;20.466;2023-02-28T15:26:01;34.75;;;14.27;;
66179;SDS011;52986;44.028;20.466;2023-02-28T15:28:27;34.33;;;14.50;;
66179;SDS011;52986;44.028;20.466;2023-02-28T15:31:02;32.15;;;14.20;;
66179;SDS011;52986;44.028;20.466;2023-02-28T15:33:51;36.00;;;14.02;;
66179;SDS011;52986;44.028;20.466;2023-02-28T15:36:17;38.95;;;15.48;;
66179;SDS011;52986;44.028;20.466;2023-02-28T15:38:46;34.72;;;13.73;;
66179;SDS011;52986;44.028;20.466;2023-02-28T15:41:37;34.15;;;13.30;;
66179;SDS011;52986;44.028;20.466;2023-02-28T15:44:23;33.08;;;13.25;;
66179;SDS011;52986;44.028;20.466;2023-02-28T15:46:58;33.35;;;13.68;;
66179;SDS011;52986;44.028;20.466;2023-02-28T15:49:26;38.67;;;16.17;;
66179;SDS011;52986;44.028;20.466;2023-02-28T15:51:53;42.58;;;16.73;;
66179;SDS011;52986;44.028;20.466;2023-02-28T15:54:33;41.55;;;17.08;;
66179;SDS011;52986;44.028;20.466;2023-02-28T15:57:06;37.88;;;15.88;;
66179;SDS011;52986;44.028;20.466;2023-02-28T15:59:36;37.83;;;14.88;;
66179;SDS011;52986;44.028;20.466;2023-02-28T16:07:40;30.92;;;12.32;;
66179;SDS011;52986;44.028;20.466;2023-02-28T16:10:09;34.03;;;13.52;;
66179;SDS011;52986;44.028;20.466;2023-02-28T16:12:37;51.00;;;20.60;;
66179;SDS011;52986;44.028;20.466;2023-02-28T16:15:08;57.80;;;24.67;;
66179;SDS011;52986;44.028;20.466;2023-02-28T16:17:42;52.25;;;21.88;;
66179;SDS011;52986;44.028;20.466;2023-02-28T16:20:12;50.13;;;19.30;;
66179;SDS011;52986;44.028;20.466;2023-02-28T16:22:41;52.80;;;22.45;;
66179;SDS011;52986;44.028;20.466;2023-02-28T16:25:10;55.35;;;22.13;;
66179;SDS011;52986;44.028;20.466;2023-02-28T16:27:40;49.58;;;19.88;;
66179;SDS011;52986;44.028;20.466;2023-02-28T16:30:07;47.53;;;19.80;;
66179;SDS011;52986;44.028;20.466;2023-02-28T16:32:40;53.08;;;22.23;;
66179;SDS011;52986;44.028;20.466;2023-02-28T16:35:09;53.95;;;21.50;;
66179;SDS011;52986;44.028;20.466;2023-02-28T16:37:35;53.30;;;21.98;;
66179;SDS011;52986;44.028;20.466;2023-02-28T16:40:01;55.00;;;22.80;;
66179;SDS011;52986;44.028;20.466;2023-02-28T16:42:27;60.53;;;24.25;;
66179;SDS011;52986;44.028;20.466;2023-02-28T16:44:54;52.90;;;21.80;;
66179;SDS011;52986;44.028;20.466;2023-02-28T16:47:20;51.35;;;21.75;;
66179;SDS011;52986;44.028;20.466;2023-02-28T16:49:47;49.55;;;21.23;;
66179;SDS011;52986;44.028;20.466;2023-02-28T16:52:13;49.42;;;20.33;;
66179;SDS011;52986;44.028;20.466;2023-02-28T16:54:39;50.72;;;22.00;;
66179;SDS011;52986;44.028;20.466;2023-02-28T16:57:05;49.13;;;21.42;;
66179;SDS011;52986;44.028;20.466;2023-02-28T16:59:32;46.72;;;18.77;;
66179;SDS011;52986;44.028;20.466;2023-02-28T17:01:58;48.85;;;19.52;;
66179;SDS011;52986;44.028;20.466;2023-02-28T17:04:26;57.88;;;25.23;;
66179;SDS011;52986;44.028;20.466;2023-02-28T17:06:52;46.75;;;18.67;;
66179;SDS011;52986;44.028;20.466;2023-02-28T17:09:19;39.53;;;16.55;;
66179;SDS011;52986;44.028;20.466;2023-02-28T17:11:46;37.05;;;14.07;;
66179;SDS011;52986;44.028;20.466;2023-02-28T17:14:12;32.47;;;12.73;;
66179;SDS011;52986;44.028;20.466;2023-02-28T17:16:38;30.60;;;12.18;;
66179;SDS011;52986;44.028;20.466;2023-02-28T17:19:13;37.83;;;14.73;;